createdAt,value
2017-11-05T00:00:31.837Z,94.57
2017-11-05T00:02:59.301Z,95.02
2017-11-05T00:05:26.781Z,94.27
2017-11-05T00:07:54.246Z,94.15
2017-11-05T00:10:21.737Z,94.28
2017-11-05T00:12:49.197Z,94.24
2017-11-05T00:15:17.134Z,94.55
2017-11-05T00:17:44.601Z,94.94
2017-11-05T00:20:12.061Z,94.75
2017-11-05T00:22:39.549Z,94.24
2017-11-05T00:25:07.033Z,94.03
2017-11-05T00:27:34.514Z,94.16
2017-11-05T00:30:01.976Z,94.20
2017-11-05T00:32:29.490Z,94.49
2017-11-05T00:34:56.961Z,94.96
2017-11-05T00:37:24.447Z,94.69
2017-11-05T00:39:51.912Z,94.91
2017-11-05T00:42:19.465Z,95.61
2017-11-05T00:44:46.930Z,96.09
2017-11-05T00:47:14.412Z,96.10
2017-11-05T00:49:41.883Z,96.07
2017-11-05T00:52:09.372Z,96.56
2017-11-05T00:54:36.834Z,96.44
2017-11-05T00:57:04.312Z,97.14
2017-11-05T00:59:31.783Z,96.72
2017-11-05T01:01:59.274Z,96.19
2017-11-05T01:04:26.793Z,95.83
2017-11-05T01:06:54.283Z,95.58
2017-11-05T01:09:21.746Z,94.92
2017-11-05T01:11:49.249Z,94.18
2017-11-05T01:14:16.703Z,94.61
2017-11-05T01:16:44.199Z,94.33
2017-11-05T01:19:11.689Z,93.89
2017-11-05T01:21:39.143Z,94.12
2017-11-05T01:24:06.631Z,94.19
2017-11-05T01:26:34.101Z,94.16
2017-11-05T01:29:01.572Z,94.25
2017-11-05T01:31:29.037Z,93.83
2017-11-05T01:33:56.565Z,93.10
2017-11-05T01:36:24.020Z,93.17
2017-11-05T01:38:51.517Z,94.10
2017-11-05T01:41:18.985Z,94.71
2017-11-05T01:43:46.500Z,95.07
2017-11-05T01:46:13.955Z,95.78
2017-11-05T01:48:41.436Z,96.03
2017-11-05T01:51:08.912Z,96.47
2017-11-05T01:53:36.421Z,96.56
2017-11-05T01:56:03.881Z,96.78
2017-11-05T01:58:31.342Z,97.09
2017-11-05T02:00:58.841Z,97.19
2017-11-05T02:03:26.301Z,96.59
2017-11-05T02:05:53.784Z,96.07
2017-11-05T02:08:21.258Z,96.21
2017-11-05T02:10:48.753Z,96.06
2017-11-05T02:13:16.214Z,95.55
2017-11-05T02:15:45.586Z,94.77
2017-11-05T02:18:13.040Z,94.93
2017-11-05T02:20:40.516Z,95.49
2017-11-05T02:23:07.974Z,96.09
2017-11-05T02:25:35.450Z,95.55
2017-11-05T02:28:02.917Z,95.32
2017-11-05T02:30:30.439Z,95.25
2017-11-05T02:32:57.901Z,95.23
2017-11-05T02:35:25.389Z,95.89
2017-11-05T02:37:52.836Z,95.17
2017-11-05T02:40:20.322Z,95.50
2017-11-05T02:42:47.813Z,95.73
2017-11-05T02:45:15.273Z,95.68
2017-11-05T02:47:42.759Z,96.00
2017-11-05T02:50:10.269Z,96.10
2017-11-05T02:52:37.830Z,95.98
2017-11-05T02:55:05.286Z,96.17
2017-11-05T02:57:32.780Z,96.39
2017-11-05T03:00:00.227Z,96.47
2017-11-05T03:02:27.712Z,96.58
2017-11-05T03:04:55.217Z,97.19
2017-11-05T03:07:22.825Z,96.91
2017-11-05T03:09:50.298Z,95.66
2017-11-05T03:12:17.759Z,95.72
2017-11-05T03:14:45.238Z,96.18
2017-11-05T03:17:12.704Z,95.97
2017-11-05T03:19:40.226Z,96.51
2017-11-05T03:22:07.717Z,95.88
2017-11-05T03:24:35.199Z,96.03
2017-11-05T03:27:02.651Z,95.92
2017-11-05T03:29:30.120Z,95.52
2017-11-05T03:31:57.581Z,93.93
2017-11-05T03:34:25.056Z,95.12
2017-11-05T03:36:52.512Z,95.53
2017-11-05T03:39:19.992Z,95.63
2017-11-05T03:41:47.496Z,96.02
2017-11-05T03:44:14.963Z,96.20
2017-11-05T03:46:42.440Z,95.98
2017-11-05T03:49:09.915Z,95.81
2017-11-05T03:51:37.368Z,96.16
2017-11-05T03:54:04.855Z,96.14
2017-11-05T03:56:32.317Z,95.93
2017-11-05T03:58:59.809Z,95.79
2017-11-05T04:01:27.255Z,95.89
2017-11-05T04:03:54.744Z,96.12
2017-11-05T04:06:22.192Z,96.04
2017-11-05T04:08:49.647Z,96.38
2017-11-05T04:11:17.116Z,97.40
2017-11-05T04:13:44.564Z,97.42
2017-11-05T04:16:12.048Z,96.06
2017-11-05T04:18:39.499Z,96.45
2017-11-05T04:21:07.089Z,96.45
2017-11-05T04:23:34.651Z,96.31
2017-11-05T04:26:02.148Z,96.36
2017-11-05T04:28:29.678Z,96.40
2017-11-05T04:30:57.194Z,96.10
2017-11-05T04:33:24.671Z,96.21
2017-11-05T04:35:52.115Z,95.42
2017-11-05T04:38:19.592Z,95.87
2017-11-05T04:40:47.042Z,95.84
2017-11-05T04:43:14.601Z,95.80
2017-11-05T04:45:42.063Z,96.30
2017-11-05T04:48:09.570Z,95.98
2017-11-05T04:50:37.026Z,96.24
2017-11-05T04:53:04.514Z,95.93
2017-11-05T04:55:31.989Z,96.15
2017-11-05T04:57:59.484Z,96.48
2017-11-05T05:00:26.933Z,96.55
2017-11-05T05:02:54.441Z,96.15
2017-11-05T05:05:21.902Z,93.99
2017-11-05T05:07:49.384Z,93.54
2017-11-05T05:10:16.845Z,93.32
2017-11-05T05:12:44.417Z,94.09
2017-11-05T05:15:11.895Z,95.81
2017-11-05T05:17:39.360Z,95.77
2017-11-05T05:20:06.844Z,96.22
2017-11-05T05:22:34.296Z,96.50
2017-11-05T05:25:01.786Z,96.78
2017-11-05T05:27:29.249Z,97.30
2017-11-05T05:29:56.729Z,97.39
2017-11-05T05:32:24.204Z,97.05
2017-11-05T05:34:51.701Z,96.91
2017-11-05T05:37:19.166Z,96.83
2017-11-05T05:39:46.729Z,96.95
2017-11-05T05:42:14.249Z,97.36
2017-11-05T05:44:41.739Z,96.91
2017-11-05T05:47:09.229Z,96.50
2017-11-05T05:49:36.724Z,96.37
2017-11-05T05:52:04.181Z,95.66
2017-11-05T05:54:31.633Z,94.77
2017-11-05T05:56:59.120Z,96.10
2017-11-05T05:59:26.621Z,96.98
2017-11-05T06:01:54.103Z,96.19
2017-11-05T06:04:21.585Z,96.64
2017-11-05T06:06:49.087Z,95.39
2017-11-05T06:09:16.543Z,95.53
2017-11-05T06:11:44.061Z,95.50
2017-11-05T06:14:11.513Z,96.12
2017-11-05T06:16:38.996Z,96.49
2017-11-05T06:19:06.457Z,95.56
2017-11-05T06:21:33.935Z,96.16
2017-11-05T06:24:01.405Z,96.40
2017-11-05T06:26:28.899Z,94.16
2017-11-05T06:28:56.356Z,93.01
2017-11-05T06:31:24.846Z,92.00
2017-11-05T06:33:52.492Z,92.65
2017-11-05T06:36:19.941Z,92.98
2017-11-05T06:38:47.409Z,93.90
2017-11-05T06:41:14.893Z,95.98
2017-11-05T06:43:42.385Z,96.54
2017-11-05T06:46:09.846Z,96.39
2017-11-05T06:48:37.823Z,95.82
2017-11-05T06:51:05.385Z,95.81
2017-11-05T06:53:32.894Z,96.07
2017-11-05T06:56:00.434Z,96.51
2017-11-05T06:58:27.917Z,96.66
2017-11-05T07:00:55.367Z,96.88
2017-11-05T07:03:22.913Z,96.81
2017-11-05T07:05:50.404Z,96.92
2017-11-05T07:08:17.908Z,96.83
2017-11-05T07:10:45.379Z,96.87
2017-11-05T07:13:12.857Z,96.72
2017-11-05T07:15:40.341Z,97.13
2017-11-05T07:18:07.792Z,97.09
2017-11-05T07:20:35.301Z,97.37
2017-11-05T07:23:02.878Z,96.82
2017-11-05T07:25:30.352Z,96.97
2017-11-05T07:27:57.833Z,97.22
2017-11-05T07:30:25.309Z,96.99
2017-11-05T07:32:52.780Z,97.25
2017-11-05T07:35:20.265Z,97.21
2017-11-05T07:37:47.729Z,98.14
2017-11-05T07:40:15.256Z,98.01
2017-11-05T07:42:42.720Z,98.12
2017-11-05T07:45:10.188Z,98.49
2017-11-05T07:47:37.650Z,98.91
2017-11-05T07:50:05.129Z,98.62
2017-11-05T07:52:32.636Z,97.92
2017-11-05T07:55:00.133Z,97.72
2017-11-05T07:57:27.603Z,97.51
2017-11-05T07:59:55.052Z,97.80
2017-11-05T08:02:22.527Z,98.04
2017-11-05T08:04:50.033Z,98.09
2017-11-05T08:07:17.522Z,97.66
2017-11-05T08:09:44.979Z,97.61
2017-11-05T08:12:12.465Z,97.47
2017-11-05T08:14:39.987Z,97.14
2017-11-05T08:17:07.461Z,97.99
2017-11-05T08:19:34.950Z,97.20
2017-11-05T08:22:02.432Z,96.77
2017-11-05T08:24:29.884Z,95.36
2017-11-05T08:26:57.361Z,94.59
2017-11-05T08:29:24.837Z,92.69
2017-11-05T08:31:52.364Z,92.28
2017-11-05T08:34:19.896Z,91.71
2017-11-05T08:36:47.399Z,91.89
2017-11-05T08:39:14.899Z,91.64
2017-11-05T08:41:42.399Z,91.82
2017-11-05T08:44:09.877Z,91.49
2017-11-05T08:46:37.413Z,92.05
2017-11-05T08:49:04.897Z,90.79
2017-11-05T08:51:32.353Z,90.29
2017-11-05T08:53:59.816Z,90.69
2017-11-05T08:56:27.265Z,88.69
2017-11-05T08:58:54.728Z,88.79
2017-11-05T09:01:22.181Z,89.53
2017-11-05T09:03:49.685Z,89.38
2017-11-05T09:06:17.137Z,89.61
2017-11-05T09:08:44.612Z,90.22
2017-11-05T09:11:12.081Z,89.78
2017-11-05T09:13:39.560Z,90.02
2017-11-05T09:16:06.999Z,90.31
2017-11-05T09:18:34.450Z,90.47
2017-11-05T09:21:01.946Z,90.16
2017-11-05T09:23:29.406Z,89.99
2017-11-05T09:25:56.920Z,89.55
2017-11-05T09:28:24.374Z,89.54
2017-11-05T09:30:51.844Z,89.80
2017-11-05T09:33:19.321Z,89.46
2017-11-05T09:35:46.788Z,91.20
2017-11-05T09:38:14.287Z,90.69
2017-11-05T09:40:41.851Z,90.18
2017-11-05T09:43:09.309Z,90.15
2017-11-05T09:45:36.815Z,89.50
2017-11-05T09:48:04.272Z,89.87
2017-11-05T09:50:31.723Z,90.01
2017-11-05T09:52:59.201Z,90.79
2017-11-05T09:55:26.644Z,90.33
2017-11-05T09:57:54.175Z,92.33
2017-11-05T10:00:21.748Z,90.22
2017-11-05T10:02:49.525Z,88.47
2017-11-05T10:05:17.421Z,86.76
2017-11-05T10:07:44.983Z,87.64
2017-11-05T10:10:12.442Z,87.19
2017-11-05T10:12:39.951Z,86.99
2017-11-05T10:15:07.407Z,86.76
2017-11-05T10:17:34.922Z,87.48
2017-11-05T10:20:02.397Z,87.12
2017-11-05T10:22:29.887Z,86.65
2017-11-05T10:24:57.332Z,87.43
2017-11-05T10:27:24.776Z,86.71
2017-11-05T10:29:52.314Z,86.32
2017-11-05T10:32:19.868Z,87.72
2017-11-05T10:34:47.441Z,86.25
2017-11-05T10:37:14.999Z,85.08
2017-11-05T10:39:42.536Z,85.92
2017-11-05T10:42:09.979Z,86.06
2017-11-05T10:44:37.454Z,86.37
2017-11-05T10:47:04.907Z,86.48
2017-11-05T10:49:32.385Z,86.22
2017-11-05T10:51:59.839Z,86.82
2017-11-05T10:54:27.402Z,87.71
2017-11-05T10:56:54.961Z,87.14
2017-11-05T10:59:22.436Z,87.75
2017-11-05T11:01:49.901Z,89.44
2017-11-05T11:04:17.387Z,88.01
2017-11-05T11:06:44.828Z,87.39
2017-11-05T11:09:12.312Z,87.59
2017-11-05T11:11:39.756Z,89.67
2017-11-05T11:14:07.200Z,90.85
2017-11-05T11:16:34.684Z,88.88
2017-11-05T11:19:02.147Z,87.76
2017-11-05T11:21:29.720Z,87.15
2017-11-05T11:23:57.176Z,87.29
2017-11-05T11:26:24.683Z,88.01
2017-11-05T11:28:52.138Z,86.96
2017-11-05T11:31:19.613Z,87.62
2017-11-05T11:33:47.071Z,87.58
2017-11-05T11:36:14.554Z,87.22
2017-11-05T11:38:42.022Z,87.05
2017-11-05T11:41:09.516Z,86.52
2017-11-05T11:43:36.980Z,84.72
2017-11-05T11:46:04.452Z,84.91
2017-11-05T11:48:31.907Z,85.51
2017-11-05T11:50:59.400Z,86.24
2017-11-05T11:53:26.857Z,85.25
2017-11-05T11:55:54.348Z,82.49
2017-11-05T11:58:21.806Z,81.91
2017-11-05T12:00:49.283Z,82.47
2017-11-05T12:03:16.789Z,80.53
2017-11-05T12:05:44.345Z,80.38
2017-11-05T12:08:11.837Z,80.79
2017-11-05T12:10:39.275Z,82.02
2017-11-05T12:13:06.743Z,79.47
2017-11-05T12:15:34.188Z,77.42
2017-11-05T12:18:01.661Z,75.50
2017-11-05T12:20:29.179Z,76.76
2017-11-05T12:22:56.647Z,76.42
2017-11-05T12:25:24.099Z,78.38
2017-11-05T12:27:51.596Z,77.54
2017-11-05T12:30:19.117Z,77.90
2017-11-05T12:32:46.685Z,77.92
2017-11-05T12:35:14.129Z,77.19
2017-11-05T12:37:41.606Z,77.83
2017-11-05T12:40:09.148Z,76.50
2017-11-05T12:42:36.607Z,76.90
2017-11-05T12:45:04.096Z,77.04
2017-11-05T12:47:31.618Z,76.90
2017-11-05T12:49:59.103Z,76.08
2017-11-05T12:52:26.566Z,75.54
2017-11-05T12:54:54.040Z,75.50
2017-11-05T12:57:21.506Z,75.97
2017-11-05T12:59:48.967Z,75.04
2017-11-05T13:02:16.438Z,75.44
2017-11-05T13:04:43.919Z,75.69
2017-11-05T13:07:11.385Z,75.36
2017-11-05T13:09:38.931Z,73.99
2017-11-05T13:12:06.390Z,73.99
2017-11-05T13:14:33.855Z,75.55
2017-11-05T13:17:01.331Z,75.32
2017-11-05T13:19:28.865Z,76.31
2017-11-05T13:21:56.362Z,74.45
2017-11-05T13:24:23.825Z,73.11
2017-11-05T13:26:51.324Z,73.03
2017-11-05T13:29:18.771Z,73.21
2017-11-05T13:31:46.252Z,74.84
2017-11-05T13:34:13.700Z,75.62
2017-11-05T13:36:41.186Z,75.14
2017-11-05T13:39:08.645Z,74.37
2017-11-05T13:41:36.121Z,73.48
2017-11-05T13:44:03.646Z,73.19
2017-11-05T13:46:31.117Z,72.01
2017-11-05T13:48:58.610Z,72.54
2017-11-05T13:51:26.074Z,73.93
2017-11-05T13:53:53.539Z,74.47
2017-11-05T13:56:21.009Z,74.62
2017-11-05T13:58:48.481Z,75.11
2017-11-05T14:01:15.938Z,75.31
2017-11-05T14:03:43.491Z,74.61
2017-11-05T14:06:10.953Z,74.09
2017-11-05T14:08:38.448Z,75.11
2017-11-05T14:11:05.914Z,74.06
2017-11-05T14:13:33.425Z,72.82
2017-11-05T14:16:00.934Z,73.87
2017-11-05T14:18:28.393Z,74.49
2017-11-05T14:20:55.887Z,74.15
2017-11-05T14:23:23.397Z,75.52
2017-11-05T14:25:51.404Z,75.56
2017-11-05T14:28:18.862Z,76.05
2017-11-05T14:30:46.353Z,75.56
2017-11-05T14:33:13.829Z,76.36
2017-11-05T14:35:41.467Z,76.04
2017-11-05T14:38:08.945Z,75.70
2017-11-05T14:40:36.417Z,77.01
2017-11-05T14:43:03.871Z,77.56
2017-11-05T14:45:31.354Z,77.98
2017-11-05T14:47:58.905Z,76.95
2017-11-05T14:50:26.391Z,77.67
2017-11-05T14:52:53.853Z,77.46
2017-11-05T14:55:22.427Z,76.83
2017-11-05T14:57:49.923Z,77.13
2017-11-05T15:00:17.476Z,78.39
2017-11-05T15:02:46.515Z,77.98
2017-11-05T15:05:13.975Z,77.10
2017-11-05T15:07:41.451Z,78.88
2017-11-05T15:10:09.732Z,79.32
2017-11-05T15:12:37.266Z,80.02
2017-11-05T15:15:04.721Z,81.19
2017-11-05T15:17:32.287Z,82.87
2017-11-05T15:19:59.765Z,82.55
2017-11-05T15:22:27.325Z,83.70
2017-11-05T15:24:54.786Z,83.15
2017-11-05T15:27:22.353Z,84.25
2017-11-05T15:29:49.899Z,83.97
2017-11-05T15:32:18.284Z,83.46
2017-11-05T15:34:45.747Z,83.70
2017-11-05T15:37:13.201Z,85.90
2017-11-05T15:39:40.686Z,85.17
2017-11-05T15:42:08.169Z,85.47
2017-11-05T15:44:35.645Z,86.02
2017-11-05T15:47:03.126Z,85.78
2017-11-05T15:49:30.640Z,86.17
2017-11-05T15:51:58.216Z,86.11
2017-11-05T15:54:25.681Z,86.53
2017-11-05T15:56:53.137Z,86.50
2017-11-05T15:59:20.612Z,86.77
2017-11-05T16:01:48.092Z,87.13
2017-11-05T16:04:15.671Z,86.85
2017-11-05T16:06:43.167Z,87.05
2017-11-05T16:09:10.651Z,87.92
2017-11-05T16:11:38.116Z,87.32
2017-11-05T16:14:05.590Z,87.71
2017-11-05T16:16:33.073Z,87.59
2017-11-05T16:19:00.541Z,87.77
2017-11-05T16:21:28.022Z,87.85
2017-11-05T16:23:55.482Z,88.30
2017-11-05T16:26:23.004Z,88.33
2017-11-05T16:28:50.473Z,88.75
2017-11-05T16:31:18.042Z,88.27
2017-11-05T16:33:45.505Z,87.85
2017-11-05T16:36:13.008Z,87.51
2017-11-05T16:38:40.464Z,87.59
2017-11-05T16:41:07.973Z,88.14
2017-11-05T16:43:35.445Z,87.30
2017-11-05T16:46:03.020Z,87.80
2017-11-05T16:48:30.501Z,87.79
2017-11-05T16:50:57.978Z,87.69
2017-11-05T16:53:25.497Z,87.54
2017-11-05T16:55:52.967Z,87.88
2017-11-05T16:58:20.425Z,88.74
2017-11-05T17:00:47.941Z,88.34
2017-11-05T17:03:15.408Z,88.65
2017-11-05T17:05:42.865Z,88.57
2017-11-05T17:08:10.357Z,87.91
2017-11-05T17:10:37.834Z,87.97
2017-11-05T17:13:05.304Z,88.44
2017-11-05T17:15:32.783Z,88.13
2017-11-05T17:18:00.263Z,87.60
2017-11-05T17:20:27.808Z,87.75
2017-11-05T17:22:55.296Z,87.26
2017-11-05T17:25:22.755Z,87.47
2017-11-05T17:27:50.243Z,87.30
2017-11-05T17:30:17.701Z,87.71
2017-11-05T17:32:45.205Z,87.96
2017-11-05T17:35:12.698Z,84.71
2017-11-05T17:37:40.228Z,83.52
2017-11-05T17:40:07.738Z,82.94
2017-11-05T17:42:35.327Z,83.05
2017-11-05T17:45:02.809Z,84.10
2017-11-05T17:47:30.336Z,85.46
2017-11-05T17:49:57.801Z,85.16
2017-11-05T17:52:25.278Z,82.69
2017-11-05T17:54:52.764Z,80.55
2017-11-05T17:57:20.228Z,79.78
2017-11-05T17:59:47.709Z,79.28
2017-11-05T18:02:15.174Z,79.25
2017-11-05T18:04:42.662Z,79.52
2017-11-05T18:07:10.124Z,80.16
2017-11-05T18:09:37.643Z,81.49
2017-11-05T18:12:05.102Z,81.67
2017-11-05T18:14:32.585Z,83.14
2017-11-05T18:17:00.070Z,83.55
2017-11-05T18:19:27.566Z,83.55
2017-11-05T18:21:55.030Z,85.11
2017-11-05T18:24:22.529Z,85.75
2017-11-05T18:26:50.010Z,85.69
2017-11-05T18:29:17.474Z,86.51
2017-11-05T18:31:44.960Z,87.26
2017-11-05T18:34:12.442Z,87.54
2017-11-05T18:36:39.944Z,86.56
2017-11-05T18:39:07.424Z,87.62
2017-11-05T18:41:35.029Z,86.57
2017-11-05T18:44:02.490Z,86.75
2017-11-05T18:46:29.955Z,87.56
2017-11-05T18:48:57.392Z,88.05
2017-11-05T18:51:24.869Z,88.33
2017-11-05T18:53:52.329Z,88.55
2017-11-05T18:56:19.814Z,87.88
2017-11-05T18:58:47.274Z,88.03
2017-11-05T19:01:14.757Z,88.33
2017-11-05T19:03:42.293Z,88.20
2017-11-05T19:06:09.844Z,88.52
2017-11-05T19:08:37.308Z,89.12
2017-11-05T19:11:04.865Z,89.33
2017-11-05T19:13:32.339Z,89.83
2017-11-05T19:15:59.805Z,89.54
2017-11-05T19:18:27.287Z,89.94
2017-11-05T19:20:54.787Z,89.86
2017-11-05T19:23:22.372Z,90.20
2017-11-05T19:25:49.833Z,89.83
2017-11-05T19:28:17.311Z,90.00
2017-11-05T19:30:44.819Z,89.05
2017-11-05T19:33:12.307Z,88.98
2017-11-05T19:35:41.920Z,88.71
2017-11-05T19:38:09.993Z,88.79
2017-11-05T19:40:37.440Z,88.99
2017-11-05T19:43:04.933Z,88.70
2017-11-05T19:45:32.394Z,89.16
2017-11-05T19:47:59.863Z,88.87
2017-11-05T19:50:27.391Z,89.36
2017-11-05T19:52:54.875Z,89.20
2017-11-05T19:55:22.323Z,88.25
2017-11-05T19:57:49.786Z,88.24
2017-11-05T20:00:17.272Z,88.50
2017-11-05T20:02:44.724Z,87.82
2017-11-05T20:05:12.192Z,87.59
2017-11-05T20:07:39.642Z,88.63
2017-11-05T20:10:07.111Z,89.53
2017-11-05T20:12:34.561Z,88.67
2017-11-05T20:15:02.042Z,89.08
2017-11-05T20:17:29.497Z,89.50
2017-11-05T20:19:56.981Z,89.14
2017-11-05T20:22:24.438Z,89.75
2017-11-05T20:24:51.932Z,88.98
2017-11-05T20:27:19.390Z,89.07
2017-11-05T20:29:46.954Z,88.35
2017-11-05T20:32:14.419Z,88.54
2017-11-05T20:34:41.877Z,88.93
2017-11-05T20:37:09.374Z,89.24
2017-11-05T20:39:36.846Z,89.79
2017-11-05T20:42:04.353Z,89.85
2017-11-05T20:44:31.809Z,89.14
2017-11-05T20:46:59.377Z,89.63
2017-11-05T20:49:26.846Z,89.32
2017-11-05T20:51:54.359Z,89.54
2017-11-05T20:54:21.874Z,89.60
2017-11-05T20:56:49.345Z,89.80
2017-11-05T20:59:16.797Z,88.44
2017-11-05T21:01:44.281Z,89.08
2017-11-05T21:04:11.723Z,88.98
2017-11-05T21:06:39.229Z,89.41
2017-11-05T21:09:06.755Z,89.40
2017-11-05T21:11:34.231Z,88.14
2017-11-05T21:14:01.678Z,87.48
2017-11-05T21:16:29.167Z,88.59
2017-11-05T21:18:56.621Z,87.30
2017-11-05T21:21:24.080Z,87.53
2017-11-05T21:23:51.592Z,87.60
2017-11-05T21:26:19.045Z,88.02
2017-11-05T21:28:46.517Z,86.81
2017-11-05T21:31:13.996Z,87.00
2017-11-05T21:33:41.481Z,87.14
2017-11-05T21:36:08.928Z,86.53
2017-11-05T21:38:36.405Z,85.91
2017-11-05T21:41:03.867Z,86.96
2017-11-05T21:43:31.353Z,87.11
2017-11-05T21:45:58.810Z,87.66
2017-11-05T21:48:26.313Z,88.83
2017-11-05T21:50:53.767Z,88.87
2017-11-05T21:53:21.266Z,89.22
2017-11-05T21:55:48.729Z,88.93
2017-11-05T21:58:16.180Z,89.08
2017-11-05T22:00:43.658Z,89.19
2017-11-05T22:03:11.100Z,89.46
2017-11-05T22:05:38.595Z,89.19
2017-11-05T22:08:06.049Z,89.11
2017-11-05T22:10:33.584Z,88.96
2017-11-05T22:13:01.147Z,88.48
2017-11-05T22:15:28.612Z,89.09
2017-11-05T22:17:56.060Z,89.08
2017-11-05T22:20:23.544Z,89.23
2017-11-05T22:22:51.005Z,89.56
2017-11-05T22:25:18.461Z,89.12
2017-11-05T22:27:46.629Z,89.15
2017-11-05T22:30:14.148Z,89.68
2017-11-05T22:32:41.631Z,89.61
2017-11-05T22:35:09.098Z,89.43
2017-11-05T22:37:36.559Z,89.72
2017-11-05T22:40:04.029Z,89.04
2017-11-05T22:42:32.005Z,89.66
2017-11-05T22:44:59.512Z,89.76
2017-11-05T22:47:26.986Z,89.63
2017-11-05T22:49:54.526Z,89.58
2017-11-05T22:52:21.992Z,89.79
2017-11-05T22:54:49.452Z,89.65
2017-11-05T22:57:16.933Z,89.80
2017-11-05T22:59:44.386Z,89.91
2017-11-05T23:02:11.840Z,89.52
2017-11-05T23:04:39.346Z,90.12
2017-11-05T23:07:06.804Z,90.16
2017-11-05T23:09:34.285Z,89.44
2017-11-05T23:12:01.795Z,89.52
2017-11-05T23:14:29.268Z,90.14
2017-11-05T23:16:56.730Z,90.24
2017-11-05T23:19:24.324Z,89.85
2017-11-05T23:21:51.776Z,90.31
2017-11-05T23:24:19.249Z,89.96
2017-11-05T23:26:46.714Z,90.44
2017-11-05T23:29:14.213Z,90.72
2017-11-05T23:31:41.701Z,90.04
2017-11-05T23:34:09.179Z,89.96
2017-11-05T23:36:36.714Z,90.53
2017-11-05T23:39:04.177Z,89.78
2017-11-05T23:41:31.661Z,90.19
2017-11-05T23:43:59.132Z,89.84
2017-11-05T23:46:26.606Z,89.80
2017-11-05T23:48:54.066Z,90.03
2017-11-05T23:51:21.532Z,89.39
2017-11-05T23:53:48.996Z,89.42
2017-11-05T23:56:16.460Z,89.89
2017-11-05T23:58:43.899Z,90.01
